Aviation Digital Data Service (ADDS)

Output produced by METARs form (1904 UTC 11 February 2016)
found at http://aviationweather.gov/adds/metars/
 
KIAG 111753Z 1118/1218 29012G20KT P6SM VCSH SCT025 
     FM120100 28010KT P6SM FEW250 
     FM120500 23007KT P6SM SCT250 
     FM121400 24011KT P6SM BKN060 
     FM121500 24011G22KT P6SM VCSH BKN045 
     FM121700 24014G25KT 5SM -SN BKN025